createdAt,value
2019-03-29T00:00:09.006Z,91.10
2019-03-29T00:02:37.031Z,91.10
2019-03-29T00:05:05.296Z,91.10
2019-03-29T00:07:39.589Z,91.10
2019-03-29T00:10:03.893Z,91.10
2019-03-29T00:12:32.368Z,91.10
2019-03-29T00:15:00.771Z,91.10
2019-03-29T00:17:28.761Z,91.10
2019-03-29T00:19:57.960Z,91.10
2019-03-29T00:22:26.054Z,91.10
2019-03-29T00:24:54.530Z,91.10
2019-03-29T00:27:22.910Z,91.10
2019-03-29T00:29:50.962Z,91.10
2019-03-29T00:32:18.979Z,91.10
2019-03-29T00:34:47.459Z,91.10
2019-03-29T00:37:15.480Z,91.10
2019-03-29T00:40:02.421Z,91.10
2019-03-29T00:42:30.653Z,91.10
2019-03-29T00:44:58.859Z,91.10
2019-03-29T00:47:26.830Z,91.10
2019-03-29T00:49:55.245Z,91.00
2019-03-29T00:52:23.345Z,91.00
2019-03-29T00:54:51.281Z,91.00
2019-03-29T00:57:19.254Z,91.00
2019-03-29T00:59:47.731Z,91.10
2019-03-29T01:02:16.154Z,91.00
2019-03-29T01:04:44.796Z,91.00
2019-03-29T01:07:12.732Z,91.00
2019-03-29T01:09:40.961Z,91.00
2019-03-29T01:12:09.528Z,91.10
2019-03-29T01:14:37.810Z,91.00
2019-03-29T01:17:06.163Z,91.00
2019-03-29T01:19:34.509Z,90.90
2019-03-29T01:22:02.842Z,90.90
2019-03-29T01:24:30.980Z,91.00
2019-03-29T01:26:59.143Z,91.00
2019-03-29T01:29:27.017Z,91.00
2019-03-29T01:31:55.246Z,91.00
2019-03-29T01:34:23.245Z,91.10
2019-03-29T01:36:54.870Z,91.10
2019-03-29T01:39:23.617Z,91.00
2019-03-29T01:41:51.515Z,91.00
2019-03-29T01:44:20.565Z,90.90
2019-03-29T01:46:49.581Z,91.00
2019-03-29T01:49:18.613Z,91.00
2019-03-29T01:51:46.550Z,91.00
2019-03-29T01:54:14.421Z,91.00
2019-03-29T01:56:43.008Z,91.10
2019-03-29T01:59:10.998Z,91.00
2019-03-29T02:01:39.416Z,91.00
2019-03-29T02:04:08.224Z,91.00
2019-03-29T02:06:37.081Z,91.00
2019-03-29T02:09:06.033Z,91.00
2019-03-29T02:11:33.763Z,91.10
2019-03-29T02:14:02.002Z,91.00
2019-03-29T02:16:30.310Z,91.00
2019-03-29T02:18:58.904Z,90.90
2019-03-29T02:21:26.900Z,90.90
2019-03-29T02:23:56.269Z,90.90
2019-03-29T02:26:24.929Z,90.90
2019-03-29T02:28:53.155Z,91.10
2019-03-29T02:31:25.389Z,91.10
2019-03-29T02:33:51.660Z,91.00
2019-03-29T02:36:20.090Z,91.10
2019-03-29T02:38:55.517Z,91.20
2019-03-29T02:41:19.053Z,91.20
2019-03-29T02:43:48.008Z,91.20
2019-03-29T02:46:16.690Z,91.20
2019-03-29T02:48:45.270Z,91.20
2019-03-29T02:51:13.272Z,91.20
2019-03-29T02:53:42.227Z,91.30
2019-03-29T02:56:10.219Z,91.20
2019-03-29T02:58:38.715Z,91.20
2019-03-29T03:01:06.790Z,91.20
2019-03-29T03:03:35.197Z,91.20
2019-03-29T03:06:03.331Z,91.20
2019-03-29T03:08:33.048Z,91.20
2019-03-29T03:11:01.340Z,91.30
2019-03-29T03:13:29.375Z,91.30
2019-03-29T03:15:57.510Z,91.30
2019-03-29T03:18:26.642Z,91.20
2019-03-29T03:20:55.353Z,91.20
2019-03-29T03:23:23.473Z,91.50
2019-03-29T03:25:52.299Z,91.10
2019-03-29T03:28:20.604Z,91.10
2019-03-29T03:30:48.993Z,91.00
2019-03-29T03:33:16.988Z,91.00
2019-03-29T03:35:44.875Z,91.00
2019-03-29T03:38:12.982Z,91.00
2019-03-29T03:40:40.955Z,90.80
2019-03-29T03:43:09.272Z,90.80
2019-03-29T03:45:37.897Z,90.90
2019-03-29T03:48:06.303Z,90.90
2019-03-29T03:50:38.880Z,91.00
2019-03-29T03:53:07.115Z,91.00
2019-03-29T03:55:36.991Z,91.00
2019-03-29T03:58:05.430Z,90.90
2019-03-29T04:00:54.087Z,90.80
2019-03-29T04:03:22.690Z,90.90
2019-03-29T04:05:52.195Z,90.80
2019-03-29T04:08:20.447Z,90.80
2019-03-29T04:10:49.076Z,90.90
2019-03-29T04:13:17.719Z,90.90
2019-03-29T04:15:46.013Z,91.00
2019-03-29T04:18:16.007Z,91.00
2019-03-29T04:20:44.182Z,91.10
2019-03-29T04:23:12.455Z,91.10
2019-03-29T04:25:40.435Z,91.10
2019-03-29T04:28:09.485Z,91.10
2019-03-29T04:30:37.706Z,91.10
2019-03-29T04:33:10.758Z,91.10
2019-03-29T04:35:37.432Z,91.20
2019-03-29T04:38:06.404Z,91.10
2019-03-29T04:40:35.757Z,91.10
2019-03-29T04:43:04.621Z,91.20
2019-03-29T04:45:34.307Z,91.40
2019-03-29T04:48:04.076Z,91.40
2019-03-29T04:50:33.595Z,91.40
2019-03-29T04:53:03.454Z,91.30
2019-03-29T04:55:34.489Z,91.30
2019-03-29T04:58:05.788Z,91.20
2019-03-29T05:00:37.099Z,91.30
2019-03-29T05:03:05.381Z,91.20
2019-03-29T05:05:35.167Z,91.20
2019-03-29T05:08:03.824Z,91.20
2019-03-29T05:10:32.763Z,91.20
2019-03-29T05:13:02.579Z,91.30
2019-03-29T05:15:31.862Z,91.20
2019-03-29T05:18:01.208Z,91.20
2019-03-29T05:20:30.477Z,91.20
2019-03-29T05:22:58.870Z,91.20
2019-03-29T05:25:31.245Z,91.30
2019-03-29T05:28:06.918Z,91.40
2019-03-29T05:30:35.760Z,91.60
2019-03-29T05:33:12.680Z,91.70
2019-03-29T05:35:47.124Z,91.70
2019-03-29T05:38:21.550Z,91.70
2019-03-29T05:40:50.825Z,91.60
2019-03-29T05:43:19.337Z,91.60
2019-03-29T05:45:51.594Z,91.60
2019-03-29T05:48:22.823Z,91.60
2019-03-29T05:50:51.906Z,91.60
2019-03-29T05:53:20.806Z,91.50
2019-03-29T05:55:49.457Z,91.80
2019-03-29T05:58:17.827Z,92.00
2019-03-29T06:00:46.072Z,91.90
2019-03-29T06:03:14.709Z,91.90
2019-03-29T06:05:42.944Z,92.00
2019-03-29T06:08:11.109Z,92.00
2019-03-29T06:10:48.786Z,92.00
2019-03-29T06:13:10.048Z,92.10
2019-03-29T06:15:38.391Z,92.20
2019-03-29T06:18:06.715Z,92.20
2019-03-29T06:20:36.073Z,92.30
2019-03-29T06:23:04.307Z,92.50
2019-03-29T06:25:32.552Z,92.60
2019-03-29T06:28:00.540Z,92.60
2019-03-29T06:30:30.419Z,92.80
2019-03-29T06:32:58.882Z,92.90
2019-03-29T06:35:31.035Z,93.10
2019-03-29T06:38:00.391Z,93.20
2019-03-29T06:40:28.561Z,93.30
2019-03-29T06:42:56.787Z,93.30
2019-03-29T06:45:25.209Z,93.40
2019-03-29T06:47:53.641Z,93.50
2019-03-29T06:50:21.873Z,93.60
2019-03-29T06:52:50.836Z,93.70
2019-03-29T06:55:19.552Z,93.90
2019-03-29T06:57:48.112Z,93.90
2019-03-29T07:00:16.715Z,94.00
2019-03-29T07:02:45.978Z,94.00
2019-03-29T07:05:14.819Z,94.10
2019-03-29T07:07:44.640Z,94.10
2019-03-29T07:10:13.371Z,94.20
2019-03-29T07:12:41.563Z,94.30
2019-03-29T07:15:10.094Z,94.40
2019-03-29T07:17:38.539Z,94.50
2019-03-29T07:20:07.710Z,94.60
2019-03-29T07:22:36.831Z,94.70
2019-03-29T07:25:05.207Z,94.80
2019-03-29T07:27:44.973Z,94.90
2019-03-29T07:30:05.094Z,95.00
2019-03-29T07:32:33.527Z,95.10
2019-03-29T07:35:01.710Z,95.10
2019-03-29T07:37:29.959Z,95.20
2019-03-29T07:39:58.729Z,95.40
2019-03-29T07:42:26.870Z,95.30
2019-03-29T07:44:55.090Z,95.40
2019-03-29T07:47:23.678Z,95.40
2019-03-29T07:49:51.965Z,95.40
2019-03-29T07:52:21.464Z,95.40
2019-03-29T07:54:49.891Z,95.40
2019-03-29T07:57:18.154Z,95.40
2019-03-29T07:59:46.914Z,95.40
2019-03-29T08:02:15.195Z,95.40
2019-03-29T08:04:46.368Z,95.40
2019-03-29T08:07:26.322Z,95.50
2019-03-29T08:09:43.450Z,95.50
2019-03-29T08:12:11.572Z,95.60
2019-03-29T08:14:40.155Z,95.60
2019-03-29T08:17:08.173Z,95.50
2019-03-29T08:19:37.498Z,95.80
2019-03-29T08:22:06.135Z,96.00
2019-03-29T08:24:34.493Z,95.80
2019-03-29T08:27:03.005Z,95.80
2019-03-29T08:29:31.589Z,95.80
2019-03-29T08:31:59.679Z,95.80
2019-03-29T08:34:28.826Z,95.80
2019-03-29T08:36:56.760Z,95.80
2019-03-29T08:39:28.196Z,95.80
2019-03-29T08:42:00.289Z,95.80
2019-03-29T08:44:27.446Z,95.80
2019-03-29T08:46:56.009Z,95.90
2019-03-29T08:49:23.866Z,95.90
2019-03-29T08:51:51.493Z,95.90
2019-03-29T08:54:19.938Z,96.20
2019-03-29T08:56:48.229Z,95.90
2019-03-29T08:59:17.610Z,95.90
2019-03-29T09:01:45.940Z,95.90
2019-03-29T09:04:13.948Z,96.20
2019-03-29T09:06:52.625Z,95.90
2019-03-29T09:09:13.209Z,95.90
2019-03-29T09:11:42.126Z,95.90
2019-03-29T09:14:10.788Z,95.90
2019-03-29T09:16:39.470Z,95.90
2019-03-29T09:19:14.705Z,95.90
2019-03-29T09:21:43.065Z,95.90
2019-03-29T09:24:21.880Z,96.00
2019-03-29T09:26:41.576Z,96.00
2019-03-29T09:29:10.148Z,96.00
2019-03-29T09:31:38.548Z,96.10
2019-03-29T09:34:07.456Z,96.10
2019-03-29T09:36:36.197Z,96.20
2019-03-29T09:39:06.353Z,96.20
2019-03-29T09:41:35.933Z,96.20
2019-03-29T09:44:04.177Z,96.30
2019-03-29T09:46:33.195Z,96.30
2019-03-29T09:49:02.025Z,96.30
2019-03-29T09:51:30.989Z,96.30
2019-03-29T09:53:58.879Z,96.40
2019-03-29T09:56:38.786Z,96.40
2019-03-29T09:58:58.392Z,96.50
2019-03-29T10:01:26.907Z,96.50
2019-03-29T10:03:55.330Z,96.50
2019-03-29T10:06:24.023Z,96.60
2019-03-29T10:08:54.249Z,96.60
2019-03-29T10:11:22.351Z,96.60
2019-03-29T10:13:51.215Z,96.60
2019-03-29T10:16:19.585Z,96.60
2019-03-29T10:18:47.541Z,96.60
2019-03-29T10:21:17.368Z,96.60
2019-03-29T10:23:45.780Z,96.70
2019-03-29T10:26:13.979Z,96.70
2019-03-29T10:28:42.140Z,96.70
2019-03-29T10:31:11.548Z,96.70
2019-03-29T10:33:39.939Z,96.60
2019-03-29T10:36:07.994Z,96.40
2019-03-29T10:38:37.007Z,96.60
2019-03-29T10:41:05.368Z,96.60
2019-03-29T10:43:33.501Z,96.70
2019-03-29T10:46:01.870Z,96.70
2019-03-29T10:48:30.200Z,96.70
2019-03-29T10:50:59.245Z,96.70
2019-03-29T10:53:28.968Z,96.70
2019-03-29T10:55:57.540Z,96.80
2019-03-29T10:58:25.909Z,96.80
2019-03-29T11:00:54.701Z,96.80
2019-03-29T11:03:23.145Z,96.70
2019-03-29T11:05:51.774Z,96.60
2019-03-29T11:08:20.362Z,96.50
2019-03-29T11:10:49.310Z,96.90
2019-03-29T11:13:17.513Z,96.50
2019-03-29T11:15:46.509Z,96.40
2019-03-29T11:18:14.889Z,96.30
2019-03-29T11:20:43.373Z,96.40
2019-03-29T11:23:11.788Z,96.20
2019-03-29T11:25:39.978Z,96.20
2019-03-29T11:28:08.608Z,96.10
2019-03-29T11:30:42.431Z,96.10
2019-03-29T11:33:07.209Z,96.00
2019-03-29T11:35:36.168Z,95.90
2019-03-29T11:38:04.578Z,95.80
2019-03-29T11:40:32.854Z,95.80
2019-03-29T11:43:01.115Z,95.60
2019-03-29T11:45:29.391Z,95.90
2019-03-29T11:48:08.179Z,95.50
2019-03-29T11:50:29.330Z,95.50
2019-03-29T11:52:57.562Z,95.20
2019-03-29T11:55:25.883Z,95.10
2019-03-29T11:57:55.985Z,95.10
2019-03-29T12:00:34.407Z,95.10
2019-03-29T12:03:02.906Z,95.00
2019-03-29T12:05:35.964Z,95.00
2019-03-29T12:08:03.854Z,95.00
2019-03-29T12:10:32.451Z,94.90
2019-03-29T12:13:00.927Z,94.90
2019-03-29T12:15:29.817Z,94.70
2019-03-29T12:17:58.368Z,94.60
2019-03-29T12:20:26.551Z,94.50
2019-03-29T12:22:54.954Z,94.10
2019-03-29T12:25:23.105Z,93.80
2019-03-29T12:27:51.301Z,93.90
2019-03-29T12:30:31.326Z,93.90
2019-03-29T12:32:50.090Z,93.90
2019-03-29T12:35:18.409Z,93.90
2019-03-29T12:37:48.840Z,93.90
2019-03-29T12:40:17.683Z,93.90
2019-03-29T12:42:46.494Z,94.00
2019-03-29T12:45:14.582Z,93.90
2019-03-29T12:47:42.843Z,93.90
2019-03-29T12:50:11.532Z,93.90
2019-03-29T12:52:40.522Z,93.90
2019-03-29T12:55:08.654Z,93.80
2019-03-29T12:57:38.957Z,93.80
2019-03-29T13:00:08.388Z,93.90
2019-03-29T13:02:36.705Z,93.80
2019-03-29T13:05:07.270Z,93.50
2019-03-29T13:07:35.549Z,93.50
2019-03-29T13:10:04.696Z,93.40
2019-03-29T13:12:34.170Z,93.20
2019-03-29T13:15:08.747Z,93.30
2019-03-29T13:17:43.492Z,93.20
2019-03-29T13:20:11.738Z,93.20
2019-03-29T13:22:40.033Z,93.00
2019-03-29T13:25:08.565Z,93.10
2019-03-29T13:27:38.250Z,92.80
2019-03-29T13:30:08.114Z,93.00
2019-03-29T13:32:36.803Z,92.70
2019-03-29T13:35:06.440Z,92.70
2019-03-29T13:37:34.681Z,92.70
2019-03-29T13:40:03.589Z,92.70
2019-03-29T13:42:32.818Z,92.60
2019-03-29T13:45:01.152Z,92.60
2019-03-29T13:47:30.761Z,92.60
2019-03-29T13:49:59.314Z,92.50
2019-03-29T13:52:27.741Z,92.40
2019-03-29T13:54:56.214Z,92.50
2019-03-29T13:57:24.503Z,92.50
2019-03-29T13:59:52.607Z,92.40
2019-03-29T14:02:22.166Z,92.40
2019-03-29T14:04:50.756Z,92.40
2019-03-29T14:07:19.768Z,92.40
2019-03-29T14:09:48.274Z,92.10
2019-03-29T14:12:16.270Z,92.30
2019-03-29T14:14:45.099Z,92.30
2019-03-29T14:17:13.362Z,92.20
2019-03-29T14:19:42.755Z,92.20
2019-03-29T14:22:11.753Z,92.10
2019-03-29T14:24:40.256Z,92.00
2019-03-29T14:27:08.190Z,92.00
2019-03-29T14:29:36.670Z,91.90
2019-03-29T14:32:05.089Z,91.90
2019-03-29T14:34:33.772Z,91.90
2019-03-29T14:37:02.386Z,91.90
2019-03-29T14:39:31.189Z,91.80
2019-03-29T14:41:59.420Z,91.80
2019-03-29T14:44:28.225Z,91.70
2019-03-29T14:46:57.773Z,91.60
2019-03-29T14:49:26.267Z,91.70
2019-03-29T14:51:54.502Z,91.50
2019-03-29T14:54:23.059Z,91.30
2019-03-29T14:56:51.450Z,91.40
2019-03-29T14:59:19.681Z,91.50
2019-03-29T15:01:47.750Z,91.50
2019-03-29T15:04:16.050Z,91.50
2019-03-29T15:06:44.155Z,91.50
2019-03-29T15:09:12.355Z,91.10
2019-03-29T15:11:43.826Z,91.20
2019-03-29T15:14:12.963Z,91.20
2019-03-29T15:16:45.073Z,91.30
2019-03-29T15:19:13.778Z,91.50
2019-03-29T15:21:43.667Z,91.50
2019-03-29T15:24:12.301Z,91.50
2019-03-29T15:26:40.627Z,91.40
2019-03-29T15:29:09.576Z,91.20
2019-03-29T15:31:38.629Z,91.20
2019-03-29T15:34:08.226Z,91.00
2019-03-29T15:36:37.145Z,90.80
2019-03-29T15:39:06.038Z,90.70
2019-03-29T15:41:34.454Z,90.60
2019-03-29T15:44:02.837Z,90.40
2019-03-29T15:46:31.493Z,90.30
2019-03-29T15:49:07.722Z,90.20
2019-03-29T15:51:36.245Z,90.10
2019-03-29T15:54:05.928Z,90.00
2019-03-29T15:56:34.718Z,89.30
2019-03-29T15:59:03.511Z,89.60
2019-03-29T16:01:32.971Z,89.50
2019-03-29T16:04:01.890Z,89.30
2019-03-29T16:06:30.064Z,89.00
2019-03-29T16:08:58.569Z,88.90
2019-03-29T16:11:27.370Z,88.60
2019-03-29T16:13:56.523Z,88.10
2019-03-29T16:16:25.802Z,87.90
2019-03-29T16:18:54.371Z,87.60
2019-03-29T16:21:22.795Z,87.50
2019-03-29T16:23:51.208Z,87.20
2019-03-29T16:26:19.349Z,87.00
2019-03-29T16:28:47.646Z,86.90
2019-03-29T16:31:17.404Z,86.90
2019-03-29T16:33:46.670Z,86.90
2019-03-29T16:36:15.547Z,86.70
2019-03-29T16:38:44.086Z,87.30
2019-03-29T16:41:12.888Z,86.50
2019-03-29T16:43:41.255Z,86.60
2019-03-29T16:46:09.669Z,86.70
2019-03-29T16:48:37.854Z,86.50
2019-03-29T16:51:06.464Z,86.30
2019-03-29T16:53:35.430Z,86.30
2019-03-29T16:56:03.878Z,86.30
2019-03-29T16:58:32.506Z,86.30
2019-03-29T17:01:01.067Z,86.10
2019-03-29T17:03:29.425Z,86.10
2019-03-29T17:06:06.649Z,86.00
2019-03-29T17:08:35.711Z,86.00
2019-03-29T17:11:04.213Z,85.90
2019-03-29T17:13:34.030Z,85.70
2019-03-29T17:16:03.326Z,85.80
2019-03-29T17:18:32.178Z,85.90
2019-03-29T17:21:01.715Z,85.90
2019-03-29T17:23:31.060Z,85.90
2019-03-29T17:25:59.290Z,85.80
2019-03-29T17:28:27.671Z,85.90
2019-03-29T17:30:59.409Z,85.80
2019-03-29T17:33:27.971Z,85.70
2019-03-29T17:35:56.777Z,85.70
2019-03-29T17:38:24.950Z,85.70
2019-03-29T17:40:53.878Z,85.60
2019-03-29T17:43:22.271Z,85.70
2019-03-29T17:45:50.850Z,85.70
2019-03-29T17:48:19.138Z,85.50
2019-03-29T17:50:47.702Z,85.80
2019-03-29T17:53:16.130Z,85.90
2019-03-29T17:55:44.161Z,85.90
2019-03-29T17:58:12.887Z,86.00
2019-03-29T18:00:41.457Z,86.10
2019-03-29T18:03:09.855Z,86.20
2019-03-29T18:05:38.263Z,86.20
2019-03-29T18:08:06.732Z,86.30
2019-03-29T18:10:35.698Z,86.40
2019-03-29T18:13:04.729Z,86.30
2019-03-29T18:15:33.087Z,86.50
2019-03-29T18:18:01.619Z,86.70
2019-03-29T18:20:30.896Z,86.70
2019-03-29T18:22:59.857Z,87.10
2019-03-29T18:25:28.151Z,87.50
2019-03-29T18:27:56.536Z,87.90
2019-03-29T18:30:36.765Z,88.10
2019-03-29T18:33:05.102Z,88.40
2019-03-29T18:35:33.612Z,88.60
2019-03-29T18:38:01.916Z,89.00
2019-03-29T18:40:29.814Z,89.20
2019-03-29T18:42:58.552Z,89.40
2019-03-29T18:45:27.604Z,89.40
2019-03-29T18:47:55.910Z,89.40
2019-03-29T18:50:24.025Z,89.60
2019-03-29T18:52:52.338Z,89.80
2019-03-29T18:55:20.575Z,90.00
2019-03-29T18:57:48.968Z,90.10
2019-03-29T19:00:26.731Z,90.10
2019-03-29T19:02:54.990Z,90.30
2019-03-29T19:05:24.133Z,90.30
2019-03-29T19:07:52.714Z,90.40
2019-03-29T19:10:21.210Z,90.50
2019-03-29T19:12:49.673Z,90.60
2019-03-29T19:15:18.040Z,90.70
2019-03-29T19:17:46.685Z,90.70
2019-03-29T19:20:26.530Z,90.80
2019-03-29T19:22:44.808Z,90.90
2019-03-29T19:25:13.400Z,90.90
2019-03-29T19:27:41.502Z,91.00
2019-03-29T19:30:11.042Z,91.00
2019-03-29T19:32:39.803Z,91.00
2019-03-29T19:35:09.027Z,91.10
2019-03-29T19:37:38.327Z,91.10
2019-03-29T19:40:06.925Z,91.10
2019-03-29T19:42:34.917Z,91.10
2019-03-29T19:45:04.098Z,91.30
2019-03-29T19:47:33.349Z,91.20
2019-03-29T19:50:03.371Z,91.20
2019-03-29T19:52:32.653Z,91.30
2019-03-29T19:55:01.427Z,91.20
2019-03-29T19:57:30.524Z,91.30
2019-03-29T19:59:59.131Z,91.30
2019-03-29T20:02:26.927Z,91.40
2019-03-29T20:04:55.581Z,91.30
2019-03-29T20:07:24.435Z,91.40
2019-03-29T20:09:53.875Z,91.40
2019-03-29T20:12:24.985Z,91.40
2019-03-29T20:14:52.929Z,91.40
2019-03-29T20:17:27.278Z,91.40
2019-03-29T20:19:56.668Z,91.40
2019-03-29T20:22:24.806Z,91.40
2019-03-29T20:24:53.786Z,91.40
2019-03-29T20:27:22.004Z,91.40
2019-03-29T20:29:51.010Z,91.30
2019-03-29T20:32:19.550Z,91.30
2019-03-29T20:34:47.788Z,91.30
2019-03-29T20:37:16.546Z,91.30
2019-03-29T20:39:44.873Z,91.30
2019-03-29T20:42:13.158Z,91.20
2019-03-29T20:44:41.063Z,91.20
2019-03-29T20:47:09.958Z,91.30
2019-03-29T20:49:38.607Z,91.30
2019-03-29T20:52:07.060Z,91.30
2019-03-29T20:54:35.077Z,91.30
2019-03-29T20:57:03.374Z,91.30
2019-03-29T20:59:32.258Z,91.30
2019-03-29T21:02:00.901Z,91.30
2019-03-29T21:04:29.795Z,91.20
2019-03-29T21:06:58.216Z,91.20
2019-03-29T21:09:26.763Z,91.20
2019-03-29T21:11:55.446Z,91.20
2019-03-29T21:14:23.838Z,91.20
2019-03-29T21:16:52.195Z,91.20
2019-03-29T21:19:20.514Z,91.50
2019-03-29T21:21:48.603Z,91.20
2019-03-29T21:24:17.205Z,91.20
2019-03-29T21:26:45.560Z,91.20
2019-03-29T21:29:14.026Z,91.20
2019-03-29T21:31:42.304Z,91.20
2019-03-29T21:34:10.280Z,91.20
2019-03-29T21:36:38.445Z,91.20
2019-03-29T21:39:09.166Z,91.20
2019-03-29T21:41:37.800Z,91.10
2019-03-29T21:44:06.002Z,91.10
2019-03-29T21:46:34.246Z,91.10
2019-03-29T21:49:02.279Z,91.10
2019-03-29T21:51:30.886Z,91.10
2019-03-29T21:53:59.131Z,91.10
2019-03-29T21:56:27.623Z,91.10
2019-03-29T21:58:56.073Z,91.10
2019-03-29T22:01:25.153Z,91.10
2019-03-29T22:03:53.376Z,91.00
2019-03-29T22:06:23.047Z,91.10
2019-03-29T22:08:51.870Z,91.00
2019-03-29T22:11:20.213Z,91.00
2019-03-29T22:13:48.450Z,90.90
2019-03-29T22:16:16.577Z,90.90
2019-03-29T22:18:45.290Z,90.90
2019-03-29T22:21:14.305Z,90.90
2019-03-29T22:23:42.575Z,90.90
2019-03-29T22:26:11.008Z,90.90
2019-03-29T22:28:39.633Z,90.80
2019-03-29T22:31:08.311Z,90.90
2019-03-29T22:33:36.631Z,90.80
2019-03-29T22:36:04.779Z,90.70
2019-03-29T22:38:32.814Z,90.80
2019-03-29T22:41:01.712Z,90.80
2019-03-29T22:43:30.543Z,90.70
2019-03-29T22:45:59.970Z,90.70
2019-03-29T22:48:28.094Z,90.70
2019-03-29T22:50:57.349Z,90.60
2019-03-29T22:53:25.586Z,90.50
2019-03-29T22:55:53.903Z,90.50
2019-03-29T22:58:21.888Z,90.50
2019-03-29T23:00:52.753Z,90.90
2019-03-29T23:03:21.026Z,90.50
2019-03-29T23:05:49.851Z,90.50
2019-03-29T23:08:17.985Z,90.50
2019-03-29T23:10:46.457Z,90.50
2019-03-29T23:13:14.405Z,90.40
2019-03-29T23:15:42.755Z,90.40
2019-03-29T23:18:11.539Z,90.40
2019-03-29T23:20:40.309Z,90.40
2019-03-29T23:23:08.573Z,90.40
2019-03-29T23:25:37.056Z,90.30
2019-03-29T23:28:05.076Z,90.40
2019-03-29T23:30:36.761Z,90.30
2019-03-29T23:33:04.940Z,90.30
2019-03-29T23:35:32.863Z,90.60
2019-03-29T23:38:01.124Z,90.30
2019-03-29T23:40:29.998Z,90.30
2019-03-29T23:42:58.001Z,90.30
2019-03-29T23:45:27.400Z,90.20
2019-03-29T23:47:56.034Z,90.30
2019-03-29T23:50:24.005Z,90.60
2019-03-29T23:52:52.119Z,90.20
2019-03-29T23:55:20.552Z,90.20
2019-03-29T23:57:48.458Z,90.20
